Time;durP1;ratioP1;P1;durP2;ratioP2;P2;SDS_P1;SDS_P2;PMS_P1;PMS_P2;Temp;Humidity;BMP_temperature;BMP_pressure;BME280_temperature;BME280_humidity;BME280_pressure;Samples;Min_cycle;Max_cycle;Signal;HPM_P1;HPM_P2
2023/01/31 00:02:22;;;;;;;;;1.00;1.00;;;;;5.34;78.68;100611.50;5117300;28;8827;-61
2023/01/31 00:04:50;;;;;;;;;1.00;1.00;;;;;5.34;78.75;100608.00;5117565;28;8851;-61
2023/01/31 00:07:18;;;;;;;;;2.60;1.00;;;;;5.32;79.19;100615.97;5118193;28;8800;-61
2023/01/31 00:09:46;;;;;;;;;0.40;0.40;;;;;5.33;79.09;100616.84;5118151;28;8846;-61
2023/01/31 00:12:14;;;;;;;;;1.00;1.00;;;;;5.32;79.00;100620.44;5117739;28;8828;-61
2023/01/31 00:14:42;;;;;;;;;1.00;1.00;;;;;5.32;79.18;100615.16;5118076;28;8950;-59
2023/01/31 00:17:09;;;;;;;;;1.00;1.00;;;;;5.31;79.31;100616.06;5117032;28;8823;-61
2023/01/31 00:19:39;;;;;;;;;1.80;1.80;;;;;5.31;79.42;100621.34;5117366;28;8820;-61
2023/01/31 00:22:07;;;;;;;;;0.40;0.40;;;;;5.30;79.21;100616.97;5117682;28;8858;-59
2023/01/31 00:24:35;;;;;;;;;3.00;2.60;;;;;5.28;79.11;100618.84;5117708;28;8958;-61
2023/01/31 00:27:03;;;;;;;;;0.80;0.80;;;;;5.27;79.02;100617.13;5117932;28;8815;-61
2023/01/31 00:29:31;;;;;;;;;1.00;1.00;;;;;5.26;79.22;100616.25;5117657;28;8805;-60
2023/01/31 00:31:59;;;;;;;;;3.80;3.80;;;;;5.25;79.60;100608.44;5118290;28;8825;-62
2023/01/31 00:34:27;;;;;;;;;0.40;0.40;;;;;5.22;79.23;100605.94;5117616;28;8817;-59
2023/01/31 00:36:55;;;;;;;;;1.00;0.00;;;;;5.17;79.20;100621.16;5118008;28;8833;-60
2023/01/31 00:39:22;;;;;;;;;3.00;1.80;;;;;5.09;79.06;100626.75;5117566;28;8828;-61
2023/01/31 00:41:50;;;;;;;;;0.00;0.00;;;;;5.05;79.44;100627.84;5117360;28;8930;-60
2023/01/31 00:44:18;;;;;;;;;1.00;1.00;;;;;5.03;79.33;100628.84;5117781;28;9489;-60
2023/01/31 00:46:46;;;;;;;;;1.40;1.40;;;;;4.98;79.66;100628.19;5117536;28;8823;-61
2023/01/31 00:49:14;;;;;;;;;1.00;0.40;;;;;4.92;79.46;100624.06;5116761;28;8812;-61
2023/01/31 00:51:43;;;;;;;;;1.00;1.00;;;;;4.85;80.08;100620.00;5117673;28;8824;-60
2023/01/31 00:54:11;;;;;;;;;3.00;3.00;;;;;4.83;79.88;100619.22;5117185;28;8908;-61
2023/01/31 00:56:39;;;;;;;;;2.60;0.00;;;;;4.85;80.01;100619.13;5117271;28;9559;-61
2023/01/31 00:59:07;;;;;;;;;1.00;1.00;;;;;4.86;80.11;100623.50;5116774;28;8862;-59
2023/01/31 01:01:35;;;;;;;;;2.60;2.60;;;;;4.89;80.17;100616.28;5117138;28;8808;-61
2023/01/31 01:04:03;;;;;;;;;2.20;1.00;;;;;4.91;79.83;100613.56;5116038;28;8839;-61
2023/01/31 01:06:31;;;;;;;;;3.80;3.80;;;;;4.90;80.38;100596.91;5116635;28;8963;-60
2023/01/31 01:08:59;;;;;;;;;2.20;1.00;;;;;4.93;79.46;100609.09;5116818;28;8868;-59
2023/01/31 01:11:27;;;;;;;;;0.00;0.00;;;;;4.95;79.83;100615.16;5116712;28;8850;-59
2023/01/31 01:13:55;;;;;;;;;1.00;1.00;;;;;4.98;79.80;100612.34;5117011;28;8819;-61
2023/01/31 01:16:23;;;;;;;;;3.20;1.00;;;;;5.00;79.88;100597.31;5116259;28;8823;-60
2023/01/31 01:18:50;;;;;;;;;2.20;2.20;;;;;5.02;79.98;100606.03;5116513;28;8804;-60
2023/01/31 01:21:18;;;;;;;;;1.00;1.00;;;;;5.04;79.50;100615.59;5117143;28;9553;-59
2023/01/31 01:23:46;;;;;;;;;0.80;0.80;;;;;5.05;79.71;100608.50;5116350;28;8938;-59
2023/01/31 01:26:14;;;;;;;;;1.00;1.00;;;;;5.06;79.71;100613.72;5116774;28;8824;-61
2023/01/31 01:28:42;;;;;;;;;1.00;1.00;;;;;5.08;79.51;100617.16;5116369;28;8974;-59
2023/01/31 01:31:10;;;;;;;;;1.40;1.40;;;;;5.08;79.40;100614.50;5116523;28;8843;-59
2023/01/31 01:33:38;;;;;;;;;3.40;3.00;;;;;5.10;79.97;100606.53;5116346;28;9542;-60
2023/01/31 01:36:05;;;;;;;;;0.80;0.80;;;;;5.10;79.39;100606.53;5116492;28;8850;-59
2023/01/31 01:38:33;;;;;;;;;0.40;0.40;;;;;5.10;79.31;100615.28;5116399;28;8824;-62
2023/01/31 01:41:01;;;;;;;;;0.00;0.00;;;;;5.11;79.72;100600.31;5107796;28;8835;-60
2023/01/31 01:43:28;;;;;;;;;0.20;0.20;;;;;5.12;79.50;100596.75;5116357;28;8836;-62
2023/01/31 01:45:57;;;;;;;;;0.00;0.00;;;;;5.12;79.71;100591.47;5115906;28;8815;-61
2023/01/31 01:48:25;;;;;;;;;3.00;3.00;;;;;5.12;79.44;100597.63;5116457;28;8804;-61
2023/01/31 01:50:52;;;;;;;;;1.80;1.00;;;;;5.14;79.78;100605.44;5116754;28;8842;-61
2023/01/31 01:53:20;;;;;;;;;1.00;1.00;;;;;5.15;79.61;100607.13;5116389;28;8812;-62
2023/01/31 01:55:48;;;;;;;;;4.00;3.00;;;;;5.16;79.69;100609.72;5116319;28;8800;-61
2023/01/31 01:58:15;;;;;;;;;2.20;1.00;;;;;5.17;79.34;100619.34;5116133;28;8822;-61
2023/01/31 02:00:44;;;;;;;;;0.80;0.80;;;;;5.17;79.76;100616.72;5116341;28;8858;-61
2023/01/31 02:03:12;;;;;;;;;1.00;0.00;;;;;5.16;78.94;100609.72;5116451;28;8812;-61
2023/01/31 02:05:40;;;;;;;;;1.00;1.00;;;;;5.11;79.63;100610.88;5116351;28;8820;-61
2023/01/31 02:08:08;;;;;;;;;0.20;0.20;;;;;5.03;80.02;100599.81;5115878;28;8820;-60
2023/01/31 02:10:37;;;;;;;;;1.00;1.00;;;;;4.96;80.06;100606.31;5116615;28;9473;-60
2023/01/31 02:13:05;;;;;;;;;1.80;1.80;;;;;4.86;80.20;100613.78;5116070;28;8851;-60
2023/01/31 02:15:33;;;;;;;;;3.00;2.20;;;;;4.81;80.27;100607.88;5116357;28;8812;-61
2023/01/31 02:18:00;;;;;;;;;0.00;0.00;;;;;4.80;80.39;100607.94;5115600;28;8808;-62
2023/01/31 02:20:28;;;;;;;;;0.60;0.60;;;;;4.80;80.13;100602.66;5115567;28;8816;-60
2023/01/31 02:22:56;;;;;;;;;1.80;1.80;;;;;4.79;80.29;100608.88;5115761;28;8819;-61
2023/01/31 02:25:24;;;;;;;;;1.00;1.00;;;;;4.77;80.39;100618.63;5116135;28;8843;-61
2023/01/31 02:27:52;;;;;;;;;1.00;1.00;;;;;4.74;80.18;100627.53;5116356;28;8802;-59
2023/01/31 02:30:19;;;;;;;;;0.60;0.60;;;;;4.76;80.55;100635.38;5116170;28;8833;-61
2023/01/31 02:32:47;;;;;;;;;1.00;1.00;;;;;4.79;80.43;100637.88;5115980;28;8802;-61
2023/01/31 02:35:15;;;;;;;;;1.00;1.00;;;;;4.83;80.30;100644.72;5116174;28;8827;-61
2023/01/31 02:37:43;;;;;;;;;3.40;2.60;;;;;4.86;80.50;100648.06;5115845;28;8813;-59
2023/01/31 02:40:11;;;;;;;;;0.40;0.00;;;;;4.89;80.01;100644.44;5115650;28;8812;-61
2023/01/31 02:42:38;;;;;;;;;0.20;0.20;;;;;4.92;79.92;100646.94;5115735;28;8840;-61
2023/01/31 02:45:06;;;;;;;;;1.40;1.00;;;;;4.94;80.27;100642.47;5115996;28;8836;-61
2023/01/31 02:47:34;;;;;;;;;1.40;1.40;;;;;4.94;80.11;100643.31;5116171;28;9484;-61
2023/01/31 02:50:01;;;;;;;;;0.60;0.60;;;;;4.96;79.72;100653.81;5115925;28;8854;-61
2023/01/31 02:52:29;;;;;;;;;1.60;0.80;;;;;4.97;79.48;100642.31;5116177;28;8866;-61
2023/01/31 02:57:42;;;;;;;;;0.80;0.80;;;;;4.98;80.12;100650.16;5116234;28;8823;-61
2023/01/31 03:00:10;;;;;;;;;0.00;0.00;;;;;4.98;79.94;100644.03;5116050;28;8828;-61
2023/01/31 03:02:37;;;;;;;;;0.80;0.80;;;;;4.98;79.84;100646.66;5115235;28;8812;-60
2023/01/31 03:05:05;;;;;;;;;0.60;0.60;;;;;4.98;79.70;100630.84;5115443;28;8838;-58
2023/01/31 03:07:33;;;;;;;;;1.00;1.00;;;;;4.96;79.98;100622.13;5115900;28;8816;-61
2023/01/31 03:10:01;;;;;;;;;1.00;1.00;;;;;4.94;80.03;100624.00;5115187;28;8799;-62
2023/01/31 03:12:29;;;;;;;;;0.00;0.00;;;;;4.90;79.91;100627.69;5116449;28;8815;-61
2023/01/31 03:14:57;;;;;;;;;3.00;3.00;;;;;4.87;79.99;100625.19;5118558;28;8792;-62
2023/01/31 03:17:33;;;;;;;;;1.00;1.00;;;;;4.85;80.26;100613.84;5119386;28;8819;-61
2023/01/31 03:20:01;;;;;;;;;1.80;1.40;;;;;4.84;80.33;100617.41;5118826;28;8952;-61
2023/01/31 03:22:28;;;;;;;;;1.00;1.00;;;;;4.82;80.06;100617.50;5119129;28;8820;-61
2023/01/31 03:24:56;;;;;;;;;0.00;0.00;;;;;4.80;79.91;100615.84;5118986;28;8816;-61
2023/01/31 03:27:24;;;;;;;;;3.00;0.60;;;;;4.80;80.12;100623.78;5118666;28;8800;-62
2023/01/31 03:29:52;;;;;;;;;0.60;0.60;;;;;4.79;80.37;100608.88;5118827;28;8819;-62
2023/01/31 03:32:19;;;;;;;;;1.80;0.40;;;;;4.76;80.11;100601.06;5118888;28;8982;-62
2023/01/31 03:34:47;;;;;;;;;0.00;0.00;;;;;4.75;79.74;100608.16;5119087;28;8824;-62
2023/01/31 03:37:15;;;;;;;;;0.60;0.60;;;;;4.75;79.96;100596.72;5118565;28;8808;-62
2023/01/31 03:39:43;;;;;;;;;1.40;1.40;;;;;4.75;80.18;100589.69;5118445;28;8838;-62
2023/01/31 03:42:12;;;;;;;;;2.60;1.20;;;;;4.77;80.01;100585.19;5118452;28;8847;-60
2023/01/31 03:44:39;;;;;;;;;1.00;1.00;;;;;4.77;80.10;100576.41;5118677;28;8938;-60
2023/01/31 03:47:07;;;;;;;;;1.00;1.00;;;;;4.76;80.30;100577.34;5118422;28;8819;-62
2023/01/31 03:49:35;;;;;;;;;1.00;1.00;;;;;4.71;79.54;100585.47;5118341;28;8812;-60
2023/01/31 03:52:03;;;;;;;;;2.00;1.40;;;;;4.70;80.16;100577.59;5118452;28;8843;-60
2023/01/31 03:54:30;;;;;;;;;0.00;0.00;;;;;4.65;80.21;100582.25;5118474;28;8828;-60
2023/01/31 03:56:58;;;;;;;;;1.00;0.00;;;;;4.63;80.51;100581.47;5118125;28;8835;-61
2023/01/31 03:59:26;;;;;;;;;1.00;1.00;;;;;4.62;80.63;100569.19;5118201;28;8820;-61
2023/01/31 04:01:54;;;;;;;;;0.20;0.20;;;;;4.61;80.61;100568.34;5118208;28;8808;-60
2023/01/31 04:04:22;;;;;;;;;3.00;1.00;;;;;4.62;80.09;100579.75;5118559;28;8863;-61
2023/01/31 04:06:50;;;;;;;;;1.00;1.00;;;;;4.63;80.29;100570.94;5118470;28;8824;-61
2023/01/31 04:09:17;;;;;;;;;0.20;0.20;;;;;4.66;80.28;100570.78;5117647;28;8816;-61
2023/01/31 04:11:47;;;;;;;;;1.00;1.00;;;;;4.67;80.22;100564.56;5118209;28;8893;-58
2023/01/31 04:14:15;;;;;;;;;0.40;0.40;;;;;4.69;79.92;100562.72;5117927;28;8792;-60
2023/01/31 04:16:43;;;;;;;;;0.60;0.60;;;;;4.69;80.39;100545.13;5117389;28;8831;-62
2023/01/31 04:19:11;;;;;;;;;0.60;0.60;;;;;4.70;79.95;100548.59;5117473;28;8828;-61
2023/01/31 04:21:38;;;;;;;;;0.60;0.60;;;;;4.71;80.19;100558.25;5117406;28;8844;-60
2023/01/31 04:24:08;;;;;;;;;0.00;0.00;;;;;4.72;80.41;100542.34;5117250;28;8884;-61
2023/01/31 04:26:36;;;;;;;;;3.80;3.80;;;;;4.71;80.26;100537.97;5117948;28;9517;-59
2023/01/31 04:29:04;;;;;;;;;3.60;1.00;;;;;4.71;80.29;100550.34;5117670;28;8836;-59
2023/01/31 04:31:32;;;;;;;;;0.00;0.00;;;;;4.69;80.18;100554.81;5117963;28;8814;-60
2023/01/31 04:34:00;;;;;;;;;1.00;0.00;;;;;4.68;80.34;100553.09;5117597;28;8801;-61
2023/01/31 04:36:28;;;;;;;;;3.00;1.00;;;;;4.67;79.99;100554.03;5117908;28;8978;-60
2023/01/31 04:38:55;;;;;;;;;0.00;0.00;;;;;4.68;80.14;100553.97;5117985;28;8828;-61
2023/01/31 04:41:24;;;;;;;;;0.00;0.00;;;;;4.71;80.04;100558.25;5117801;28;9473;-62
2023/01/31 04:43:51;;;;;;;;;1.00;0.00;;;;;4.74;79.92;100552.81;5117403;28;8834;-59
2023/01/31 04:46:19;;;;;;;;;1.00;1.00;;;;;4.77;80.08;100552.66;5117103;28;8859;-62
2023/01/31 04:48:47;;;;;;;;;0.60;0.60;;;;;4.78;79.84;100539.41;5117186;28;8847;-61
2023/01/31 04:51:14;;;;;;;;;0.00;0.00;;;;;4.76;80.07;100540.41;5117353;28;8844;-62
2023/01/31 04:53:42;;;;;;;;;0.40;0.00;;;;;4.75;80.11;100523.75;5117517;28;8857;-60
2023/01/31 04:56:10;;;;;;;;;1.40;1.40;;;;;4.74;80.12;100527.31;5117380;28;8828;-59
2023/01/31 04:58:38;;;;;;;;;0.00;0.00;;;;;4.77;80.29;100526.28;5117063;28;8820;-60
2023/01/31 05:01:05;;;;;;;;;3.00;1.00;;;;;4.77;80.26;100526.28;5116936;28;8836;-59
2023/01/31 05:03:34;;;;;;;;;2.60;1.80;;;;;4.77;80.07;100521.00;5096515;28;8821;-60
2023/01/31 05:06:02;;;;;;;;;3.00;2.60;;;;;4.74;80.10;100516.75;5107548;28;8943;-60
2023/01/31 05:08:30;;;;;;;;;1.00;1.00;;;;;4.72;79.90;100523.03;5116374;28;8819;-59
2023/01/31 05:10:58;;;;;;;;;1.00;0.00;;;;;4.72;79.57;100517.75;5116189;28;9249;-61
2023/01/31 05:13:28;;;;;;;;;0.00;0.00;;;;;4.72;80.05;100520.38;5115985;28;8842;-61
2023/01/31 05:15:56;;;;;;;;;1.00;1.00;;;;;4.69;79.87;100512.59;5115212;28;8831;-61
2023/01/31 05:18:24;;;;;;;;;1.20;0.40;;;;;4.65;80.55;100521.59;5115981;28;8905;-60
2023/01/31 05:20:52;;;;;;;;;1.00;0.20;;;;;4.63;80.36;100513.75;5115686;28;8858;-59
2023/01/31 05:23:20;;;;;;;;;0.40;0.00;;;;;4.60;80.45;100507.75;5118680;28;8831;-59
2023/01/31 05:25:48;;;;;;;;;0.00;0.00;;;;;4.56;80.00;100501.78;5116696;28;8828;-62
2023/01/31 05:28:15;;;;;;;;;1.00;1.00;;;;;4.54;80.43;100502.75;5115539;28;8804;-60
2023/01/31 05:30:43;;;;;;;;;3.20;3.00;;;;;4.54;80.29;100497.50;5116206;28;9562;-59
2023/01/31 05:33:11;;;;;;;;;1.00;1.00;;;;;4.55;80.36;100493.94;5115906;28;8793;-62
2023/01/31 05:35:40;;;;;;;;;0.80;0.20;;;;;4.56;80.35;100485.94;5115025;28;8809;-61
2023/01/31 05:38:08;;;;;;;;;2.20;2.20;;;;;4.56;80.13;100482.47;5116051;28;8822;-61
2023/01/31 05:40:36;;;;;;;;;3.00;3.00;;;;;4.58;80.25;100472.72;5115802;28;8821;-59
2023/01/31 05:43:04;;;;;;;;;2.20;2.20;;;;;4.57;80.09;100482.38;5115667;28;8824;-60
2023/01/31 05:45:31;;;;;;;;;1.00;1.00;;;;;4.59;80.62;100472.66;5115269;28;8838;-59
2023/01/31 05:48:00;;;;;;;;;3.00;2.60;;;;;4.64;80.06;100482.97;5115114;28;8820;-60
2023/01/31 05:50:29;;;;;;;;;0.60;0.60;;;;;4.69;80.25;100480.94;5115965;28;8916;-60
2023/01/31 05:52:58;;;;;;;;;0.60;0.60;;;;;4.74;80.33;100485.09;5115297;28;8796;-60
2023/01/31 05:55:27;;;;;;;;;3.40;3.00;;;;;4.78;80.19;100484.03;5116055;28;8804;-60
2023/01/31 05:57:54;;;;;;;;;1.00;1.00;;;;;4.81;79.93;100478.63;5115347;28;8828;-60
2023/01/31 06:00:22;;;;;;;;;5.20;4.60;;;;;4.86;79.77;100488.94;5115464;28;8827;-61
2023/01/31 06:02:50;;;;;;;;;4.40;4.40;;;;;4.88;79.93;100474.72;5115450;28;8827;-62
2023/01/31 06:05:17;;;;;;;;;1.80;1.80;;;;;4.91;79.95;100474.59;5115512;28;8842;-60
2023/01/31 06:07:46;;;;;;;;;4.80;3.60;;;;;4.94;80.09;100474.44;5115373;28;8839;-60
2023/01/31 06:10:14;;;;;;;;;2.40;0.80;;;;;4.97;80.10;100481.34;5114467;28;8860;-60
2023/01/31 06:12:42;;;;;;;;;3.00;3.00;;;;;4.99;79.85;100471.56;5113626;28;8836;-62
2023/01/31 06:15:09;;;;;;;;;4.80;3.80;;;;;5.01;79.65;100453.91;5113091;28;8845;-60
2023/01/31 06:17:37;;;;;;;;;3.00;2.60;;;;;5.01;80.08;100449.47;5113769;28;9477;-62
2023/01/31 06:20:05;;;;;;;;;4.00;4.00;;;;;5.02;79.93;100459.09;5113673;28;8858;-61
2023/01/31 06:22:33;;;;;;;;;3.40;3.20;;;;;5.03;79.58;100449.41;5113905;28;8796;-62
2023/01/31 06:25:00;;;;;;;;;6.80;3.80;;;;;5.02;80.00;100442.41;5113928;28;8820;-62
2023/01/31 06:27:28;;;;;;;;;4.00;3.40;;;;;5.04;79.98;100440.56;5114203;28;8970;-60
2023/01/31 06:29:56;;;;;;;;;4.00;4.00;;;;;5.04;79.68;100454.63;5113787;28;8810;-60
2023/01/31 06:32:24;;;;;;;;;6.20;6.00;;;;;5.06;79.88;100452.75;5113643;28;9018;-62
2023/01/31 06:34:52;;;;;;;;;4.00;4.00;;;;;5.06;79.79;100450.09;5113652;28;8829;-62
2023/01/31 06:37:20;;;;;;;;;4.00;3.00;;;;;5.07;79.50;100456.22;5113289;28;8988;-60
2023/01/31 06:39:48;;;;;;;;;5.60;4.40;;;;;5.12;80.06;100446.31;5112871;28;8829;-61
2023/01/31 06:42:15;;;;;;;;;4.20;3.00;;;;;5.15;79.91;100456.69;5112366;28;8846;-62
2023/01/31 06:44:44;;;;;;;;;6.00;6.00;;;;;5.17;79.58;100462.78;5112345;28;8831;-60
2023/01/31 06:47:13;;;;;;;;;4.00;1.80;;;;;5.19;79.77;100450.34;5114175;28;8834;-60
2023/01/31 06:49:42;;;;;;;;;3.00;3.00;;;;;5.20;79.64;100449.41;5116987;28;8838;-62
2023/01/31 06:52:09;;;;;;;;;3.00;3.00;;;;;5.20;79.60;100455.56;5117372;28;8862;-62
2023/01/31 06:54:39;;;;;;;;;3.80;3.40;;;;;5.20;79.31;100452.91;5117532;28;8843;-61
2023/01/31 06:57:07;;;;;;;;;2.20;1.80;;;;;5.21;79.03;100448.47;5116858;28;8960;-62
2023/01/31 06:59:34;;;;;;;;;3.40;3.00;;;;;5.22;79.63;100437.84;5117458;28;9555;-62
2023/01/31 07:02:02;;;;;;;;;4.40;4.40;;;;;5.22;79.79;100443.13;5116414;28;8836;-60
2023/01/31 07:04:30;;;;;;;;;3.60;3.60;;;;;5.24;79.19;100443.06;5105504;28;9770;-62
2023/01/31 07:06:57;;;;;;;;;6.20;5.60;;;;;5.25;79.08;100461.44;5115652;28;8908;-62
2023/01/31 07:09:26;;;;;;;;;4.80;4.80;;;;;5.27;79.19;100461.38;5115735;28;8851;-62
2023/01/31 07:11:53;;;;;;;;;3.60;3.20;;;;;5.30;79.64;100471.78;5115438;28;8938;-62
2023/01/31 07:14:22;;;;;;;;;6.00;4.80;;;;;5.32;79.28;100467.28;5114944;28;8803;-60
2023/01/31 07:16:50;;;;;;;;;1.00;1.00;;;;;5.35;79.72;100478.56;5114431;28;8830;-61
2023/01/31 07:19:18;;;;;;;;;3.60;3.00;;;;;5.38;79.29;100473.13;5115179;28;8831;-59
2023/01/31 07:21:47;;;;;;;;;3.00;3.00;;;;;5.42;78.96;100464.13;5113908;28;8828;-59
2023/01/31 07:24:15;;;;;;;;;3.20;3.00;;;;;5.41;78.74;100467.66;5115163;28;8815;-62
2023/01/31 07:26:43;;;;;;;;;3.80;3.00;;;;;5.43;79.06;100459.69;5115300;28;8827;-62
2023/01/31 07:29:11;;;;;;;;;3.00;1.00;;;;;5.47;79.26;100461.25;5115713;28;9497;-60
2023/01/31 07:31:39;;;;;;;;;4.40;3.00;;;;;5.49;78.73;100469.94;5115945;28;8900;-60
2023/01/31 07:34:07;;;;;;;;;3.60;3.60;;;;;5.50;78.90;100467.22;5115936;28;8828;-60
2023/01/31 07:36:35;;;;;;;;;3.40;3.40;;;;;5.52;79.23;100464.47;5116332;28;8803;-62
2023/01/31 07:39:03;;;;;;;;;7.00;6.00;;;;;5.53;79.06;100461.78;5115964;28;8816;-61
2023/01/31 07:41:31;;;;;;;;;1.80;1.80;;;;;5.54;79.24;100473.22;5116221;28;8828;-61
2023/01/31 07:43:59;;;;;;;;;4.00;4.00;;;;;5.56;78.39;100452.84;5115558;28;8800;-62
2023/01/31 07:46:26;;;;;;;;;3.00;3.00;;;;;5.57;78.54;100439.56;5115139;28;8828;-61
2023/01/31 07:48:54;;;;;;;;;4.00;4.00;;;;;5.59;78.82;100450.03;5115392;28;8847;-62
2023/01/31 07:51:22;;;;;;;;;3.40;3.00;;;;;5.61;78.59;100437.63;5115340;28;8967;-60
2023/01/31 07:53:50;;;;;;;;;4.80;4.00;;;;;5.64;78.56;100453.31;5114025;28;8816;-60
2023/01/31 07:56:18;;;;;;;;;1.40;1.00;;;;;5.66;78.54;100446.16;5114764;28;8804;-61
2023/01/31 07:58:46;;;;;;;;;2.20;2.20;;;;;5.70;78.28;100447.72;5114849;28;8951;-62
2023/01/31 08:04:01;;;;;;;;;3.00;2.60;;;;;5.76;78.52;100445.59;5109764;28;8848;-59
2023/01/31 08:06:46;;;;;;;;;4.00;4.00;;;;;5.79;78.29;100449.88;5114629;28;8843;-60
2023/01/31 08:09:14;;;;;;;;;4.80;3.00;;;;;5.80;78.61;100448.97;5114567;28;8842;-61
2023/01/31 08:11:41;;;;;;;;;4.00;3.80;;;;;5.81;78.26;100446.25;5114179;28;9629;-59
2023/01/31 08:14:09;;;;;;;;;5.60;4.40;;;;;5.81;78.24;100450.66;5113689;28;8828;-62
2023/01/31 08:16:38;;;;;;;;;1.80;1.20;;;;;5.81;78.21;100430.41;5113447;28;8827;-61
2023/01/31 08:19:06;;;;;;;;;2.60;2.60;;;;;5.82;78.03;100439.16;5115085;28;8845;-60
2023/01/31 08:21:34;;;;;;;;;4.80;4.40;;;;;5.82;77.95;100425.94;5114297;28;8978;-60
2023/01/31 08:24:02;;;;;;;;;4.00;4.00;;;;;5.84;78.36;100424.09;5114047;28;8820;-59
2023/01/31 08:26:30;;;;;;;;;5.60;3.80;;;;;5.85;78.70;100423.16;5114305;28;8848;-60
2023/01/31 08:28:58;;;;;;;;;6.00;4.00;;;;;5.85;78.21;100416.06;5113692;28;8873;-61
2023/01/31 08:31:26;;;;;;;;;5.20;4.40;;;;;5.85;78.15;100404.66;5113282;28;8829;-58
2023/01/31 08:33:56;;;;;;;;;5.80;4.00;;;;;5.85;78.33;100409.97;5114031;28;8841;-62
2023/01/31 08:36:23;;;;;;;;;3.40;3.40;;;;;5.84;78.23;100406.44;5114104;28;8956;-59
2023/01/31 08:38:52;;;;;;;;;4.40;4.00;;;;;5.85;78.75;100415.25;5114260;28;8960;-61
2023/01/31 08:41:20;;;;;;;;;6.80;6.00;;;;;5.83;78.26;100396.81;5114646;28;9512;-62
2023/01/31 08:43:48;;;;;;;;;8.80;5.60;;;;;5.84;78.24;100387.13;5115077;28;8823;-62
2023/01/31 08:46:25;;;;;;;;;4.00;4.00;;;;;5.86;78.29;100386.06;5115545;28;8848;-62
2023/01/31 08:48:53;;;;;;;;;7.00;6.60;;;;;5.88;78.05;100367.50;5115890;28;8831;-62
2023/01/31 08:51:21;;;;;;;;;3.80;3.60;;;;;5.91;78.22;100372.63;5115725;28;8912;-62
2023/01/31 08:53:49;;;;;;;;;3.00;1.80;;;;;5.94;78.20;100383.03;5115582;28;8819;-60
2023/01/31 08:56:20;;;;;;;;;4.00;3.00;;;;;5.95;78.04;100376.81;5115454;28;8832;-62
2023/01/31 08:58:48;;;;;;;;;0.00;0.00;;;;;5.98;77.91;100379.28;5115421;28;8812;-62
2023/01/31 09:01:15;;;;;;;;;4.80;4.00;;;;;5.98;77.67;100382.78;5115480;28;8863;-61
2023/01/31 09:03:43;;;;;;;;;4.00;4.00;;;;;5.94;78.11;100388.31;5114711;28;8831;-62
2023/01/31 09:06:12;;;;;;;;;2.80;2.60;;;;;5.83;77.87;100394.16;5114344;28;8904;-59
2023/01/31 09:08:40;;;;;;;;;5.20;4.40;;;;;5.69;78.69;100406.38;5114804;28;8843;-61
2023/01/31 09:11:08;;;;;;;;;0.00;0.00;;;;;5.53;79.29;100397.56;5113889;28;8824;-62
2023/01/31 09:13:36;;;;;;;;;2.60;1.00;;;;;5.40;79.34;100412.31;5114591;28;9592;-59
2023/01/31 09:16:04;;;;;;;;;4.00;3.00;;;;;5.31;79.64;100402.22;5114598;28;8824;-59
2023/01/31 09:18:32;;;;;;;;;3.60;1.80;;;;;5.23;79.62;100404.41;5113655;28;8812;-59
2023/01/31 09:21:00;;;;;;;;;2.20;1.40;;;;;5.17;79.57;100410.81;5115123;28;8832;-58
2023/01/31 09:23:28;;;;;;;;;1.40;1.00;;;;;5.11;79.89;100397.09;5114012;28;8819;-58
2023/01/31 09:25:56;;;;;;;;;0.80;0.80;;;;;5.08;79.84;100406.00;5113296;28;8848;-59
2023/01/31 09:28:24;;;;;;;;;2.20;1.00;;;;;5.06;80.36;100402.59;5114027;28;9466;-59
2023/01/31 09:30:53;;;;;;;;;1.00;1.00;;;;;5.04;79.97;100382.50;5113966;28;9497;-61
2023/01/31 09:33:21;;;;;;;;;2.60;2.60;;;;;5.02;80.17;100379.09;5112496;28;8846;-61
2023/01/31 09:35:49;;;;;;;;;3.00;3.00;;;;;5.00;80.03;100371.25;5112490;28;8827;-61
2023/01/31 09:38:17;;;;;;;;;1.00;1.00;;;;;4.99;80.86;100366.91;5112422;28;8816;-59
2023/01/31 09:40:44;;;;;;;;;0.40;0.40;;;;;4.99;81.00;100376.59;5112409;28;8840;-59
2023/01/31 09:43:12;;;;;;;;;2.20;2.20;;;;;4.97;80.62;100366.13;5111729;28;8804;-59
2023/01/31 09:45:41;;;;;;;;;1.00;0.60;;;;;4.97;80.94;100367.91;5112521;28;8908;-60
2023/01/31 09:48:09;;;;;;;;;4.00;4.00;;;;;4.96;81.00;100374.97;5112685;28;9781;-59
2023/01/31 09:50:38;;;;;;;;;3.80;3.00;;;;;4.95;80.61;100375.03;5113118;28;8835;-60
2023/01/31 09:53:05;;;;;;;;;4.00;3.40;;;;;4.95;80.99;100367.13;5092751;28;8841;-60
2023/01/31 09:55:33;;;;;;;;;3.00;3.00;;;;;4.94;81.03;100360.16;5103165;28;8824;-59
2023/01/31 09:58:01;;;;;;;;;3.00;3.00;;;;;4.92;81.06;100377.81;5112381;28;8831;-58
2023/01/31 10:00:29;;;;;;;;;3.40;3.40;;;;;4.92;81.24;100372.53;5112688;28;8828;-61
2023/01/31 10:02:58;;;;;;;;;3.00;3.00;;;;;4.93;81.57;100374.28;5113022;28;8812;-60
2023/01/31 10:05:27;;;;;;;;;1.00;1.00;;;;;4.94;81.29;100375.97;5113588;28;8820;-60
2023/01/31 10:07:56;;;;;;;;;2.80;2.80;;;;;4.97;81.01;100371.41;5113308;28;8840;-62
2023/01/31 10:10:23;;;;;;;;;2.60;2.60;;;;;5.00;81.69;100354.53;5113359;28;8834;-61
2023/01/31 10:12:51;;;;;;;;;1.40;1.00;;;;;5.02;80.97;100352.69;5113202;28;8819;-60
2023/01/31 10:15:20;;;;;;;;;0.80;0.80;;;;;5.06;81.34;100348.94;5113819;28;8840;-58
2023/01/31 10:17:48;;;;;;;;;3.00;3.00;;;;;5.09;81.22;100347.00;5112811;28;8840;-60
2023/01/31 10:20:16;;;;;;;;;3.00;2.20;;;;;5.11;81.41;100350.44;5113799;28;8842;-58
2023/01/31 10:22:45;;;;;;;;;0.80;0.80;;;;;5.11;81.71;100342.53;5116916;28;8822;-58
2023/01/31 10:25:13;;;;;;;;;4.00;3.00;;;;;5.13;81.82;100332.75;5117439;28;8808;-61
2023/01/31 10:27:41;;;;;;;;;4.40;3.60;;;;;5.18;81.53;100329.88;5117169;28;8831;-61
2023/01/31 10:30:09;;;;;;;;;1.40;1.40;;;;;5.20;81.90;100322.72;5117242;28;8836;-61
2023/01/31 10:32:37;;;;;;;;;1.00;1.00;;;;;5.22;81.97;100308.50;5117096;28;8932;-60
2023/01/31 10:35:06;;;;;;;;;2.80;1.80;;;;;5.24;81.97;100311.06;5117976;28;8840;-58
2023/01/31 10:37:34;;;;;;;;;0.80;0.40;;;;;5.25;81.71;100296.94;5118097;28;8829;-61
2023/01/31 10:40:02;;;;;;;;;3.00;1.00;;;;;5.25;81.79;100302.22;5117861;28;8858;-61
2023/01/31 10:42:30;;;;;;;;;1.80;1.80;;;;;5.27;81.62;100301.22;5117588;28;9090;-60
2023/01/31 10:44:59;;;;;;;;;2.20;2.20;;;;;5.27;82.15;100295.06;5116605;28;8812;-61
2023/01/31 10:47:26;;;;;;;;;2.60;2.60;;;;;5.28;81.92;100296.78;5117067;28;8831;-60
2023/01/31 10:49:54;;;;;;;;;2.20;2.20;;;;;5.30;81.89;100284.34;5117308;28;9555;-61
2023/01/31 10:52:27;;;;;;;;;3.80;3.00;;;;;5.31;81.90;100291.34;5117064;28;8832;-61
2023/01/31 10:54:55;;;;;;;;;2.60;1.00;;;;;5.29;82.33;100283.50;5116510;28;8824;-61
2023/01/31 10:57:23;;;;;;;;;3.60;3.60;;;;;5.27;82.21;100284.50;5117361;28;8823;-61
2023/01/31 10:59:51;;;;;;;;;2.20;2.20;;;;;5.24;82.20;100274.97;5117437;28;8824;-61
2023/01/31 11:02:19;;;;;;;;;2.20;1.00;;;;;5.26;82.50;100277.53;5117238;28;8826;-60
2023/01/31 11:04:47;;;;;;;;;2.20;1.00;;;;;5.25;82.89;100266.09;5115663;28;8848;-61
2023/01/31 11:07:15;;;;;;;;;1.00;1.00;;;;;5.25;82.79;100247.63;5115625;28;8851;-60
2023/01/31 11:09:43;;;;;;;;;0.60;0.60;;;;;5.27;82.36;100247.56;5116353;28;8986;-61
2023/01/31 11:12:11;;;;;;;;;1.60;1.00;;;;;5.25;83.10;100249.44;5116662;28;8812;-60
2023/01/31 11:14:40;;;;;;;;;3.60;3.40;;;;;5.24;82.95;100245.09;5116804;28;8824;-58
2023/01/31 11:17:08;;;;;;;;;3.40;3.20;;;;;5.22;82.78;100239.00;5115204;28;8815;-59
2023/01/31 11:19:36;;;;;;;;;1.00;1.00;;;;;5.23;82.77;100235.47;5115572;28;8816;-58
2023/01/31 11:22:04;;;;;;;;;3.00;1.80;;;;;5.24;82.62;100242.44;5115423;28;8844;-58
2023/01/31 11:24:33;;;;;;;;;2.20;2.20;;;;;5.22;83.55;100242.50;5115898;28;8955;-60
2023/01/31 11:27:01;;;;;;;;;3.80;2.60;;;;;5.24;83.33;100237.16;5116392;28;8820;-60
2023/01/31 11:29:29;;;;;;;;;0.00;0.00;;;;;5.26;83.41;100230.00;5116057;28;8938;-60
2023/01/31 11:31:57;;;;;;;;;4.40;4.40;;;;;5.28;83.16;100229.00;5116974;28;9762;-58
2023/01/31 11:34:25;;;;;;;;;3.00;1.00;;;;;5.32;83.57;100216.50;5115937;28;8809;-60
2023/01/31 11:36:53;;;;;;;;;4.00;3.00;;;;;5.33;83.37;100215.56;5117018;28;8825;-61
2023/01/31 11:39:22;;;;;;;;;1.80;1.80;;;;;5.33;82.88;100226.09;5116549;28;8845;-61
2023/01/31 11:41:50;;;;;;;;;3.00;3.00;;;;;5.34;83.36;100222.53;5116787;28;9495;-60
2023/01/31 11:44:18;;;;;;;;;1.40;1.40;;;;;5.37;83.39;100220.56;5116842;28;8824;-61
2023/01/31 11:46:46;;;;;;;;;3.00;3.00;;;;;5.40;83.49;100223.03;5116233;28;8816;-61
2023/01/31 11:49:14;;;;;;;;;1.80;1.00;;;;;5.45;83.24;100214.88;5115761;28;8847;-61
2023/01/31 11:51:44;;;;;;;;;3.00;3.00;;;;;5.49;83.40;100201.44;5114707;28;9018;-60